Time;durP1;ratioP1;P1;durP2;ratioP2;P2;SDS_P1;SDS_P2;PMS_P1;PMS_P2;Temp;Humidity;BMP_temperature;BMP_pressure;BME280_temperature;BME280_humidity;BME280_pressure;Samples;Min_cycle;Max_cycle;Signal;HPM_P1;HPM_P2
2022/12/08 00:02:00;;;;;;;14.60;8.93;;;;;;;2.16;100.00;100934.00;5048842;28;20049;-56
2022/12/08 00:09:20;;;;;;;13.68;9.48;;;;;;;2.18;100.00;100932.22;5050887;28;20127;-57
2022/12/08 00:10:03;;;;;;;15.23;9.07;;;;;;;2.23;100.00;100913.06;5049222;28;20411;-57
2022/12/08 00:12:51;;;;;;;12.95;8.98;;;;;;;2.22;100.00;100911.38;5047189;28;20140;-57
2022/12/08 00:15:21;;;;;;;14.18;9.05;;;;;;;2.24;100.00;100905.25;5049147;28;20041;-55
2022/12/08 00:17:49;;;;;;;15.55;9.07;;;;;;;2.27;100.00;100899.09;5052523;28;20054;-57
2022/12/08 00:20:17;;;;;;;12.73;8.45;;;;;;;2.26;100.00;100893.06;5050205;28;20403;-57
2022/12/08 00:22:45;;;;;;;14.02;9.15;;;;;;;2.23;100.00;100889.72;5048781;28;20081;-58
2022/12/08 00:25:14;;;;;;;15.38;9.35;;;;;;;2.23;100.00;100885.38;5048555;28;20139;-57
2022/12/08 00:27:42;;;;;;;15.63;10.05;;;;;;;2.22;100.00;100877.63;5047881;28;20106;-58
2022/12/08 00:30:11;;;;;;;14.98;9.23;;;;;;;2.23;100.00;100879.34;5048115;28;20452;-57
2022/12/08 00:32:40;;;;;;;15.85;9.07;;;;;;;2.27;100.00;100880.94;5049994;28;20045;-57
2022/12/08 00:35:09;;;;;;;15.77;8.55;;;;;;;2.23;100.00;100871.56;5051893;28;20124;-57
2022/12/08 00:37:37;;;;;;;15.35;8.88;;;;;;;2.25;100.00;100867.16;5048742;28;20102;-57
2022/12/08 00:40:07;;;;;;;13.82;8.68;;;;;;;2.25;100.00;100870.59;5048808;28;20048;-57
2022/12/08 00:42:35;;;;;;;12.77;8.32;;;;;;;2.28;100.00;100867.06;5048231;28;20053;-57
2022/12/08 00:45:04;;;;;;;14.82;8.40;;;;;;;2.29;100.00;100871.34;5047388;28;20052;-57
2022/12/08 00:47:32;;;;;;;13.77;7.22;;;;;;;2.27;100.00;100863.63;5048114;28;20094;-57
2022/12/08 00:50:04;;;;;;;11.77;7.20;;;;;;;2.27;100.00;100868.81;5048999;28;20037;-58
2022/12/08 00:52:33;;;;;;;12.55;7.90;;;;;;;2.31;100.00;100857.44;5047856;28;20484;-57
2022/12/08 00:55:01;;;;;;;11.80;7.35;;;;;;;2.32;100.00;100859.13;5049027;28;20049;-57
2022/12/08 00:57:30;;;;;;;14.95;8.18;;;;;;;2.32;100.00;100860.91;5051539;28;20068;-58
2022/12/08 00:59:58;;;;;;;12.60;7.63;;;;;;;2.32;100.00;100851.34;5051985;28;20045;-57
2022/12/08 01:02:26;;;;;;;13.05;8.13;;;;;;;2.36;100.00;100857.31;5049074;28;20053;-57
2022/12/08 01:04:54;;;;;;;11.57;7.85;;;;;;;2.38;100.00;100845.13;5048741;28;20466;-57
2022/12/08 01:07:23;;;;;;;12.00;7.60;;;;;;;2.40;100.00;100839.88;5050365;28;20049;-58
2022/12/08 01:09:52;;;;;;;11.10;7.75;;;;;;;2.40;100.00;100838.16;5051963;28;20045;-56
2022/12/08 01:12:20;;;;;;;13.30;8.10;;;;;;;2.44;100.00;100839.75;5052060;28;20106;-57
2022/12/08 01:14:48;;;;;;;10.88;7.78;;;;;;;2.47;100.00;100837.03;5049984;28;20041;-58
2022/12/08 01:17:16;;;;;;;11.55;7.30;;;;;;;2.50;100.00;100839.53;5054421;28;20094;-58
2022/12/08 01:19:45;;;;;;;12.63;7.45;;;;;;;2.51;100.00;100838.66;5055678;28;20103;-58
2022/12/08 01:22:13;;;;;;;11.75;6.85;;;;;;;2.49;100.00;100839.59;5055695;28;20045;-57
2022/12/08 01:24:42;;;;;;;12.23;7.18;;;;;;;2.52;100.00;100842.94;5055264;28;20045;-57
2022/12/08 01:27:10;;;;;;;11.85;7.32;;;;;;;2.57;100.00;100841.97;5055540;28;20384;-57
2022/12/08 01:29:39;;;;;;;14.05;7.53;;;;;;;2.58;100.00;100844.50;5051774;28;20061;-57
2022/12/08 01:32:08;;;;;;;15.00;8.27;;;;;;;2.60;100.00;100842.69;5051721;28;20091;-55
2022/12/08 01:34:36;;;;;;;12.65;8.10;;;;;;;2.59;100.00;100846.22;5055106;28;20504;-57
2022/12/08 01:37:04;;;;;;;11.85;8.32;;;;;;;2.61;100.00;100846.16;5054225;28;20489;-57
2022/12/08 01:39:35;;;;;;;12.98;8.73;;;;;;;2.61;100.00;100853.94;5051009;28;20047;-57
2022/12/08 01:42:04;;;;;;;13.48;8.18;;;;;;;2.64;100.00;100851.25;5051629;28;20041;-57
2022/12/08 01:44:57;;;;;;;14.10;8.93;;;;;;;2.64;100.00;100838.25;5048989;28;20419;-57
2022/12/08 01:47:29;;;;;;;16.35;9.77;;;;;;;2.67;100.00;100841.63;5053414;28;20418;-57
2022/12/08 01:49:58;;;;;;;14.32;9.88;;;;;;;2.70;100.00;100838.06;5051276;28;20124;-57
2022/12/08 01:52:32;;;;;;;13.88;10.00;;;;;;;2.71;100.00;100837.16;5050611;28;20377;-57
2022/12/08 01:55:04;;;;;;;16.80;10.13;;;;;;;2.74;100.00;100838.81;5051037;28;20045;-57
2022/12/08 01:57:37;;;;;;;17.40;11.33;;;;;;;2.72;100.00;100831.06;5050986;28;20047;-57
2022/12/08 02:00:07;;;;;;;19.88;12.18;;;;;;;2.74;100.00;100826.69;5050172;28;20048;-58
2022/12/08 02:02:46;;;;;;;18.83;12.48;;;;;;;2.75;100.00;100828.34;5051067;28;20051;-58
2022/12/08 02:05:16;;;;;;;19.15;13.15;;;;;;;2.76;100.00;100824.88;5051041;28;20067;-56
2022/12/08 02:07:44;;;;;;;18.30;13.27;;;;;;;2.76;100.00;100814.47;5051426;28;20076;-58
2022/12/08 02:10:17;;;;;;;19.40;12.98;;;;;;;2.75;100.00;100810.19;5053612;28;20431;-56
2022/12/08 02:12:48;;;;;;;20.15;13.05;;;;;;;2.78;100.00;100817.91;5049981;28;20053;-56
2022/12/08 02:15:16;;;;;;;20.60;12.93;;;;;;;2.75;100.00;100807.59;5051018;28;20052;-57
2022/12/08 02:17:59;;;;;;;18.63;12.57;;;;;;;2.74;100.00;100807.63;5053410;28;20044;-56
2022/12/08 02:20:45;;;;;;;18.90;12.68;;;;;;;2.74;100.00;100805.91;5050432;28;20052;-56
2022/12/08 02:23:23;;;;;;;19.42;12.48;;;;;;;2.76;100.00;100801.50;5051580;28;20056;-56
2022/12/08 02:26:30;;;;;;;19.17;12.13;;;;;;;2.75;100.00;100810.19;5051288;28;20061;-57
2022/12/08 02:29:31;;;;;;;17.17;12.27;;;;;;;2.79;100.00;100811.78;5049139;28;20119;-56
2022/12/08 02:32:20;;;;;;;18.35;12.55;;;;;;;2.78;100.00;100807.50;5054153;28;20107;-56
2022/12/08 02:34:56;;;;;;;20.95;12.55;;;;;;;2.77;100.00;100798.00;5053975;28;20511;-56
2022/12/08 02:37:32;;;;;;;20.75;13.05;;;;;;;2.77;100.00;100802.34;5049799;28;20073;-56
2022/12/08 02:40:06;;;;;;;20.00;12.50;;;;;;;2.78;100.00;100799.72;5050446;28;20078;-55
2022/12/08 02:42:40;;;;;;;22.83;12.80;;;;;;;2.80;100.00;100794.47;5049649;28;20061;-57
2022/12/08 02:45:14;;;;;;;17.40;11.55;;;;;;;2.80;100.00;100794.47;5049073;28;20110;-56
2022/12/08 02:47:43;;;;;;;19.52;13.35;;;;;;;2.77;100.00;100784.16;5050057;28;20129;-55
2022/12/08 02:50:13;;;;;;;19.55;12.05;;;;;;;2.81;100.00;100790.94;5050096;28;20056;-56
2022/12/08 02:52:43;;;;;;;16.40;11.50;;;;;;;2.82;100.00;100785.72;5050144;28;20080;-55
2022/12/08 02:55:20;;;;;;;17.10;10.75;;;;;;;2.86;100.00;100784.72;5050088;28;20128;-56
2022/12/08 02:58:41;;;;;;;17.17;10.50;;;;;;;2.87;100.00;100777.75;5048948;28;20099;-56
2022/12/08 03:01:27;;;;;;;15.68;10.80;;;;;;;2.90;100.00;100774.22;5039816;28;20065;-56
2022/12/08 03:04:05;;;;;;;15.00;9.77;;;;;;;2.88;100.00;100782.06;5052939;28;20068;-56
2022/12/08 03:06:45;;;;;;;13.65;9.25;;;;;;;2.87;100.00;100770.78;5053497;28;20059;-57
2022/12/08 03:09:23;;;;;;;15.23;9.00;;;;;;;2.86;100.00;100768.25;5051099;28;20087;-57
2022/12/08 03:11:55;;;;;;;16.00;8.80;;;;;;;2.87;100.00;100760.41;5049744;28;20053;-56
2022/12/08 03:14:24;;;;;;;14.30;7.88;;;;;;;2.84;100.00;100759.69;5051845;28;20103;-55
2022/12/08 03:16:57;;;;;;;16.63;8.52;;;;;;;2.88;100.00;100751.72;5049753;28;20045;-56
2022/12/08 03:19:28;;;;;;;13.77;8.43;;;;;;;2.91;100.00;100744.75;5049220;28;20045;-56
2022/12/08 03:22:02;;;;;;;13.95;7.88;;;;;;;2.91;100.00;100742.13;5049536;28;20095;-56
2022/12/08 03:24:33;;;;;;;13.25;8.25;;;;;;;2.92;100.00;100736.88;5048150;28;20118;-54
2022/12/08 03:27:04;;;;;;;14.15;8.05;;;;;;;2.92;100.00;100730.81;5052256;28;20120;-56
2022/12/08 03:29:33;;;;;;;13.50;8.05;;;;;;;2.93;100.00;100729.94;5046645;28;20087;-56
2022/12/08 03:32:07;;;;;;;13.45;7.78;;;;;;;2.94;100.00;100726.44;5049351;28;20411;-56
2022/12/08 03:34:40;;;;;;;12.98;7.82;;;;;;;2.92;100.00;100720.44;5049199;28;20468;-57
2022/12/08 03:37:10;;;;;;;12.98;7.55;;;;;;;3.00;100.00;100719.28;5049159;28;20049;-56
2022/12/08 03:39:38;;;;;;;13.45;8.40;;;;;;;3.02;100.00;100716.63;5052338;28;20538;-55
2022/12/08 03:42:08;;;;;;;14.02;8.00;;;;;;;3.00;100.00;100728.81;5051827;28;20055;-56
2022/12/08 03:44:37;;;;;;;15.27;8.95;;;;;;;3.02;100.00;100727.00;5053032;28;20049;-55
2022/12/08 03:47:05;;;;;;;12.95;8.77;;;;;;;3.02;100.00;100716.63;5052996;28;20041;-56
2022/12/08 03:49:33;;;;;;;14.25;8.65;;;;;;;3.04;100.00;100720.00;5052460;28;20068;-52
2022/12/08 03:52:01;;;;;;;14.35;8.80;;;;;;;3.04;100.00;100714.78;5052054;28;20053;-53
2022/12/08 03:54:31;;;;;;;13.48;8.98;;;;;;;3.05;100.00;100703.50;5048263;28;20451;-53
2022/12/08 03:56:59;;;;;;;12.30;8.38;;;;;;;3.00;100.00;100713.22;5049199;28;20037;-55
2022/12/08 03:59:27;;;;;;;14.90;8.38;;;;;;;3.01;100.00;100699.31;5049191;28;20443;-55
2022/12/08 04:01:55;;;;;;;15.23;8.02;;;;;;;3.01;100.00;100705.38;5052526;28;20480;-55
2022/12/08 04:04:23;;;;;;;13.27;7.70;;;;;;;2.97;100.00;100698.59;5049199;28;20538;-56
2022/12/08 04:06:52;;;;;;;13.63;6.85;;;;;;;3.01;100.00;100700.19;5049332;28;20045;-56
2022/12/08 04:09:20;;;;;;;11.93;7.13;;;;;;;3.00;100.00;100698.50;5048305;28;20478;-57
2022/12/08 04:11:49;;;;;;;10.35;6.80;;;;;;;2.97;100.00;100693.41;5052881;28;20250;-57
2022/12/08 04:14:18;;;;;;;9.90;6.10;;;;;;;3.00;100.00;100687.22;5052235;28;20106;-55
2022/12/08 04:16:46;;;;;;;9.98;6.10;;;;;;;3.00;100.00;100687.22;5052394;28;20072;-57
2022/12/08 04:19:14;;;;;;;10.38;6.35;;;;;;;2.92;100.00;100695.31;5049126;28;20045;-54
2022/12/08 04:21:43;;;;;;;9.43;5.95;;;;;;;2.94;100.00;100690.91;5049433;28;20044;-54
2022/12/08 04:24:11;;;;;;;10.95;5.63;;;;;;;3.00;100.00;100687.22;5048039;28;20056;-56
2022/12/08 04:26:40;;;;;;;9.77;5.65;;;;;;;3.00;100.00;100682.03;5051399;28;20361;-55
2022/12/08 04:29:09;;;;;;;10.45;5.47;;;;;;;2.98;100.00;100683.84;5046820;28;20065;-57
2022/12/08 04:31:38;;;;;;;8.73;4.93;;;;;;;2.99;100.00;100673.41;5048772;28;20057;-57
2022/12/08 04:34:06;;;;;;;9.57;4.90;;;;;;;2.99;100.00;100686.41;5049552;28;20037;-55
2022/12/08 04:36:35;;;;;;;7.35;4.70;;;;;;;3.02;100.00;100678.47;5052267;28;20503;-56
2022/12/08 04:39:03;;;;;;;7.78;4.43;;;;;;;3.05;100.00;100667.13;5049821;28;20052;-55
2022/12/08 04:41:32;;;;;;;7.07;4.00;;;;;;;3.03;100.00;100672.38;5049215;28;20045;-56
2022/12/08 04:44:00;;;;;;;8.60;3.85;;;;;;;3.05;100.00;100669.72;5056018;28;20445;-56
2022/12/08 04:46:30;;;;;;;8.98;4.20;;;;;;;3.05;100.00;100674.94;5056214;28;20506;-55
2022/12/08 04:48:58;;;;;;;7.03;3.90;;;;;;;3.00;100.00;100682.91;5054473;28;20041;-56
2022/12/08 04:51:27;;;;;;;8.73;4.13;;;;;;;2.99;100.00;100676.00;5052005;28;20059;-56
2022/12/08 04:53:57;;;;;;;7.55;4.20;;;;;;;2.98;100.00;100679.50;5054610;28;20045;-55
2022/12/08 04:56:25;;;;;;;9.27;4.22;;;;;;;3.03;100.00;100674.16;5055934;28;20133;-56
2022/12/08 04:58:54;;;;;;;9.85;4.85;;;;;;;3.03;100.00;100679.34;5055919;28;20037;-55
2022/12/08 05:01:24;;;;;;;8.77;5.30;;;;;;;3.05;100.00;100672.31;5055285;28;20041;-56
2022/12/08 05:03:54;;;;;;;10.43;4.70;;;;;;;3.06;100.00;100671.44;5052857;28;20059;-56
2022/12/08 05:06:23;;;;;;;7.32;4.13;;;;;;;3.08;100.00;100672.25;5052059;28;20480;-56
2022/12/08 05:08:51;;;;;;;8.23;4.50;;;;;;;3.00;100.00;100671.63;5051937;28;20132;-56
2022/12/08 05:11:19;;;;;;;7.97;4.55;;;;;;;3.03;100.00;100667.19;5055466;28;20527;-54
2022/12/08 05:13:47;;;;;;;8.02;4.00;;;;;;;3.01;100.00;100669.00;5055594;28;20447;-56
2022/12/08 05:16:16;;;;;;;7.82;3.70;;;;;;;3.06;100.00;100657.59;5053360;28;20086;-56
2022/12/08 05:18:44;;;;;;;6.93;4.28;;;;;;;3.06;100.00;100666.22;5050624;28;20094;-56
2022/12/08 05:21:14;;;;;;;8.65;4.32;;;;;;;3.03;100.00;100659.41;5051911;28;20114;-57
2022/12/08 05:23:43;;;;;;;8.20;4.88;;;;;;;3.06;100.00;100662.81;5051730;28;20061;-56
2022/12/08 05:26:13;;;;;;;9.07;4.72;;;;;;;3.09;100.00;100665.28;5051889;28;20064;-57
2022/12/08 05:28:41;;;;;;;7.35;4.53;;;;;;;3.08;100.00;100658.38;5051385;28;20077;-56
2022/12/08 05:31:11;;;;;;;9.15;4.93;;;;;;;3.10;100.00;100651.38;5053012;28;20053;-54
2022/12/08 05:33:40;;;;;;;10.82;5.35;;;;;;;3.08;100.00;100653.19;5051830;28;20073;-56
2022/12/08 05:36:08;;;;;;;9.15;5.10;;;;;;;3.08;100.00;100655.78;5054827;28;20050;-56
2022/12/08 05:38:38;;;;;;;7.88;4.63;;;;;;;3.08;100.00;100654.03;5053694;28;20099;-57
2022/12/08 05:41:06;;;;;;;9.98;5.57;;;;;;;3.12;100.00;100649.56;5054944;28;20392;-56
2022/12/08 05:43:34;;;;;;;8.75;4.95;;;;;;;3.10;100.00;100652.22;5055836;28;20037;-56
2022/12/08 05:46:02;;;;;;;7.40;5.00;;;;;;;3.09;100.00;100650.53;5054964;28;20079;-57
2022/12/08 05:48:31;;;;;;;9.13;5.22;;;;;;;3.13;100.00;100648.66;5054064;28;20080;-56
2022/12/08 05:50:59;;;;;;;8.00;5.47;;;;;;;3.12;100.00;100649.56;5051219;28;20056;-56
2022/12/08 05:53:27;;;;;;;9.23;5.18;;;;;;;3.09;100.00;100645.31;5052308;28;20080;-56
2022/12/08 05:55:57;;;;;;;9.68;5.28;;;;;;;3.11;100.00;100643.53;5054963;28;20049;-55
2022/12/08 05:58:25;;;;;;;8.52;4.13;;;;;;;3.11;100.00;100650.47;5050167;28;20049;-56
2022/12/08 06:00:53;;;;;;;7.25;4.60;;;;;;;3.13;100.00;100646.91;5051469;28;20055;-55
2022/12/08 06:03:22;;;;;;;7.35;4.15;;;;;;;3.09;100.00;100650.53;5050955;28;20495;-55
2022/12/08 06:05:50;;;;;;;7.03;3.45;;;;;;;3.00;100.00;100643.06;5054434;28;20045;-55
2022/12/08 06:08:18;;;;;;;6.40;3.35;;;;;;;2.98;100.00;100647.47;5054728;28;20472;-56
2022/12/08 06:10:46;;;;;;;5.88;2.70;;;;;;;3.00;100.00;100638.72;5054538;28;20049;-56
2022/12/08 06:13:16;;;;;;;4.38;2.33;;;;;;;2.98;100.00;100642.28;5053100;28;20041;-56
2022/12/08 06:15:44;;;;;;;4.70;1.90;;;;;;;2.95;100.00;100639.81;5054622;28;20080;-56
2022/12/08 06:18:12;;;;;;;5.70;1.98;;;;;;;2.93;100.00;100639.88;5053302;28;20160;-56
2022/12/08 06:20:40;;;;;;;4.95;1.50;;;;;;;2.87;100.00;100638.31;5050795;28;20523;-56
2022/12/08 06:23:08;;;;;;;3.00;1.55;;;;;;;2.82;100.00;100642.84;5052114;28;20041;-56
2022/12/08 06:25:36;;;;;;;3.25;1.63;;;;;;;2.89;100.00;100651.28;5053972;28;20132;-56
2022/12/08 06:28:05;;;;;;;4.47;1.50;;;;;;;2.85;100.00;100653.13;5049219;28;20567;-56
2022/12/08 06:30:35;;;;;;;1.60;0.90;;;;;;;2.81;100.00;100650.66;5050146;28;20045;-56
2022/12/08 06:33:03;;;;;;;1.92;1.10;;;;;;;2.69;100.00;100651.97;5050707;28;20048;-56
2022/12/08 06:35:31;;;;;;;3.47;1.05;;;;;;;2.72;100.00;100656.22;5051634;28;20431;-56
2022/12/08 06:37:59;;;;;;;3.05;1.23;;;;;;;2.75;100.00;100656.09;5053969;28;20455;-56
2022/12/08 06:40:28;;;;;;;2.97;1.10;;;;;;;2.71;100.00;100650.16;5054156;28;20503;-56
2022/12/08 06:42:56;;;;;;;2.67;1.42;;;;;;;2.78;100.00;100646.47;5054019;28;20049;-57
2022/12/08 06:45:24;;;;;;;3.70;1.25;;;;;;;2.69;100.00;100639.00;5053936;28;20052;-56
2022/12/08 06:47:56;;;;;;;3.53;1.38;;;;;;;2.75;100.00;100649.16;5053814;28;20045;-56
2022/12/08 06:50:24;;;;;;;3.45;1.20;;;;;;;2.75;100.00;100651.75;5051338;28;20503;-51
2022/12/08 06:52:52;;;;;;;4.85;1.88;;;;;;;2.72;100.00;100643.22;5050286;28;20052;-50
2022/12/08 06:55:32;;;;;;;3.20;1.50;;;;;;;2.75;100.00;100640.53;5053245;28;20056;-51
2022/12/08 06:58:20;;;;;;;3.60;1.77;;;;;;;2.71;100.00;100652.75;5053279;28;20049;-52
2022/12/08 07:00:48;;;;;;;3.05;1.60;;;;;;;2.73;100.00;100653.56;5053509;28;20045;-51
2022/12/08 07:03:18;;;;;;;5.05;2.15;;;;;;;2.75;100.00;100654.34;5052256;28;20052;-50
2022/12/08 07:05:46;;;;;;;4.40;1.90;;;;;;;2.77;100.00;100654.28;5052709;28;20114;-50
2022/12/08 07:08:15;;;;;;;7.68;2.50;;;;;;;2.78;100.00;100656.84;5053117;28;20558;-51
2022/12/08 07:10:43;;;;;;;7.20;2.53;;;;;;;2.84;100.00;100656.63;5053341;28;20526;-52
2022/12/08 07:13:11;;;;;;;5.75;2.47;;;;;;;2.83;100.00;100654.91;5053176;28;20059;-53
2022/12/08 07:15:39;;;;;;;6.38;2.72;;;;;;;2.84;100.00;100660.97;5053025;28;20045;-49
2022/12/08 07:18:08;;;;;;;4.72;2.50;;;;;;;2.82;100.00;100663.63;5052805;28;20061;-48
2022/12/08 07:20:37;;;;;;;4.43;2.47;;;;;;;2.79;100.00;100666.31;5052941;28;20079;-55
2022/12/08 07:23:06;;;;;;;4.15;2.22;;;;;;;2.78;100.00;100669.84;5052561;28;20098;-56
2022/12/08 07:25:34;;;;;;;4.70;2.50;;;;;;;2.78;100.00;100662.03;5049671;28;20045;-56
2022/12/08 07:28:08;;;;;;;10.43;3.83;;;;;;;2.75;100.00;100667.31;5047752;28;20068;-55
2022/12/08 07:30:36;;;;;;;8.40;3.70;;;;;;;2.76;100.00;100668.19;5049435;28;20057;-56
2022/12/08 07:33:05;;;;;;;4.43;2.20;;;;;;;2.77;100.00;100670.72;5049747;28;20060;-55
2022/12/08 07:35:33;;;;;;;3.50;1.83;;;;;;;2.74;100.00;100665.66;5052720;28;20127;-56
2022/12/08 07:38:03;;;;;;;5.28;1.90;;;;;;;2.73;100.00;100663.09;5050588;28;20094;-54
2022/12/08 07:40:32;;;;;;;3.17;1.83;;;;;;;2.76;100.00;100658.63;5048952;28;20053;-54
2022/12/08 07:43:00;;;;;;;4.32;2.15;;;;;;;2.78;100.00;100659.44;5052617;28;20049;-56
2022/12/08 07:45:28;;;;;;;4.25;2.20;;;;;;;2.81;100.00;100653.28;5049181;28;20411;-56
2022/12/08 07:47:59;;;;;;;4.45;2.42;;;;;;;2.82;100.00;100648.03;5050489;28;20147;-56
2022/12/08 07:50:27;;;;;;;4.32;2.38;;;;;;;2.81;100.00;100654.13;5050837;28;20057;-56
2022/12/08 07:52:55;;;;;;;5.88;2.28;;;;;;;2.77;100.00;100655.16;5049279;28;20334;-56
2022/12/08 07:55:25;;;;;;;6.05;2.60;;;;;;;2.82;100.00;100658.44;5048554;28;20389;-56
2022/12/08 07:57:54;;;;;;;5.05;2.20;;;;;;;2.81;100.00;100661.94;5047692;28;20049;-56
2022/12/08 08:00:22;;;;;;;3.60;2.13;;;;;;;2.83;100.00;100656.66;5049198;28;20056;-56
2022/12/08 08:02:51;;;;;;;4.38;2.25;;;;;;;2.83;100.00;100654.91;5050613;28;20085;-56
2022/12/08 08:05:20;;;;;;;5.40;2.08;;;;;;;2.83;100.00;100644.53;5052448;28;20431;-56
2022/12/08 08:07:48;;;;;;;3.50;2.00;;;;;;;2.79;100.00;100658.53;5049217;28;20053;-56
2022/12/08 08:10:16;;;;;;;3.97;1.90;;;;;;;2.83;100.00;100652.31;5048010;28;20071;-55
2022/12/08 08:12:46;;;;;;;3.35;1.63;;;;;;;2.84;100.00;100645.38;5048050;28;20095;-56
2022/12/08 08:15:16;;;;;;;4.68;1.73;;;;;;;2.82;100.00;100653.25;5049858;28;20048;-56
2022/12/08 08:17:45;;;;;;;2.88;1.60;;;;;;;2.87;100.00;100653.91;5053782;28;20041;-56
2022/12/08 08:20:14;;;;;;;3.20;1.50;;;;;;;2.87;100.00;100658.25;5053291;28;20053;-55
2022/12/08 08:22:42;;;;;;;3.47;1.45;;;;;;;2.81;100.00;100667.13;5053178;28;20095;-56
2022/12/08 08:25:10;;;;;;;2.05;1.27;;;;;;;2.87;100.00;100664.28;5053338;28;20090;-56
2022/12/08 08:27:38;;;;;;;3.30;1.38;;;;;;;2.88;100.00;100663.41;5054856;28;20041;-56
2022/12/08 08:30:11;;;;;;;3.30;1.40;;;;;;;2.83;100.00;100654.91;5054591;28;20110;-57
2022/12/08 08:32:48;;;;;;;4.10;1.65;;;;;;;2.75;100.00;100661.28;5052712;28;20049;-56
2022/12/08 08:35:17;;;;;;;3.97;1.55;;;;;;;2.78;100.00;100666.38;5052495;28;20045;-56
2022/12/08 08:37:45;;;;;;;2.72;1.30;;;;;;;2.78;100.00;100662.03;5055733;28;20103;-56
2022/12/08 08:40:17;;;;;;;3.92;1.60;;;;;;;2.81;100.00;100656.72;5054504;28;20041;-54
2022/12/08 08:42:45;;;;;;;2.15;1.17;;;;;;;2.80;100.00;100662.00;5053208;28;20583;-56
2022/12/08 08:45:16;;;;;;;2.13;1.38;;;;;;;2.80;100.00;100673.22;5052243;28;20056;-56
2022/12/08 08:47:44;;;;;;;4.00;1.75;;;;;;;2.86;100.00;100672.13;5051161;28;20061;-56
2022/12/08 08:50:12;;;;;;;2.75;1.30;;;;;;;2.84;100.00;100677.41;5052255;28;20055;-55
2022/12/08 08:52:40;;;;;;;4.22;1.40;;;;;;;2.84;100.00;100668.78;5052065;28;20044;-56
2022/12/08 08:55:09;;;;;;;5.60;2.10;;;;;;;2.84;100.00;100671.38;5052299;28;20049;-55
2022/12/08 08:57:37;;;;;;;4.30;1.52;;;;;;;2.83;100.00;100673.09;5051487;28;20511;-56
2022/12/08 09:00:08;;;;;;;3.95;1.65;;;;;;;2.84;100.00;100668.78;5051207;28;20427;-55
2022/12/08 09:02:38;;;;;;;1.92;0.90;;;;;;;2.91;100.00;100666.81;5055662;28;20403;-56
2022/12/08 09:05:07;;;;;;;2.58;1.40;;;;;;;2.87;100.00;100672.09;5055951;28;20052;-56
2022/12/08 09:07:35;;;;;;;2.65;1.23;;;;;;;2.90;100.00;100670.28;5055677;28;20047;-55
2022/12/08 09:10:05;;;;;;;2.42;1.10;;;;;;;2.88;100.00;100667.75;5053155;28;20120;-57
2022/12/08 09:12:34;;;;;;;4.90;1.25;;;;;;;2.86;100.00;100661.75;5050705;28;20389;-56
2022/12/08 09:15:02;;;;;;;2.13;1.35;;;;;;;2.94;100.00;100662.31;5050975;28;20404;-56
2022/12/08 09:17:30;;;;;;;3.53;1.52;;;;;;;2.93;100.00;100664.97;5055535;28;20049;-55
2022/12/08 09:20:01;;;;;;;2.10;1.48;;;;;;;2.90;100.00;100667.69;5054078;28;20500;-56
2022/12/08 09:22:30;;;;;;;3.88;1.60;;;;;;;2.90;100.00;100662.50;5052833;28;20170;-56
2022/12/08 09:24:58;;;;;;;3.65;1.33;;;;;;;2.91;100.00;100662.44;5051638;28;20083;-56
2022/12/08 09:27:26;;;;;;;4.20;1.40;;;;;;;2.93;100.00;100665.84;5054078;28;20049;-55
2022/12/08 09:29:55;;;;;;;4.13;2.05;;;;;;;2.92;100.00;100658.94;5054683;28;20057;-56
2022/12/08 09:32:23;;;;;;;3.97;1.40;;;;;;;2.95;100.00;100664.03;5050016;28;20057;-56
2022/12/08 09:34:53;;;;;;;4.53;1.65;;;;;;;2.95;100.00;100666.63;5053870;28;20104;-58
2022/12/08 09:37:22;;;;;;;4.55;1.92;;;;;;;2.95;100.00;100664.03;5055306;28;20503;-56
2022/12/08 09:39:51;;;;;;;4.03;1.95;;;;;;;3.02;100.00;100675.03;5055422;28;20779;-56
2022/12/08 09:42:30;;;;;;;5.97;2.92;;;;;;;3.04;100.00;100668.91;5055161;28;20107;-57
2022/12/08 09:45:05;;;;;;;6.07;2.20;;;;;;;3.10;100.00;100675.59;5053881;28;20056;-56
2022/12/08 09:47:39;;;;;;;4.75;2.03;;;;;;;3.11;100.00;100681.66;5051052;28;20076;-56
2022/12/08 09:50:16;;;;;;;7.07;2.08;;;;;;;3.06;100.00;100679.22;5054294;28;20396;-56
2022/12/08 09:52:53;;;;;;;5.07;2.33;;;;;;;3.16;100.00;100683.19;5050253;28;20393;-57
2022/12/08 09:55:25;;;;;;;4.28;1.88;;;;;;;3.17;100.00;100690.06;5052164;28;20056;-56
2022/12/08 09:58:00;;;;;;;4.40;2.35;;;;;;;3.13;100.00;100683.28;5054713;28;20041;-56
2022/12/08 10:00:29;;;;;;;5.00;2.60;;;;;;;3.14;100.00;100678.97;5055940;28;20072;-57
2022/12/08 10:02:58;;;;;;;4.38;2.47;;;;;;;3.17;100.00;100673.63;5054633;28;20095;-56
2022/12/08 10:05:30;;;;;;;4.88;2.67;;;;;;;3.14;100.00;100678.97;5050492;28;20057;-57
2022/12/08 10:08:08;;;;;;;5.13;2.20;;;;;;;3.13;100.00;100672.88;5053024;28;20522;-56
2022/12/08 10:10:41;;;;;;;4.55;2.25;;;;;;;3.24;100.00;100675.09;5054097;28;20843;-56
2022/12/08 10:13:19;;;;;;;4.47;2.17;;;;;;;3.22;100.00;100671.72;5053165;28;20107;-56
2022/12/08 10:15:57;;;;;;;3.85;1.90;;;;;;;3.22;100.00;100667.34;5051313;28;20463;-57
2022/12/08 10:18:29;;;;;;;4.18;2.00;;;;;;;3.22;100.00;100667.34;5051444;28;20051;-56
2022/12/08 10:21:14;;;;;;;5.10;1.83;;;;;;;3.24;100.00;100656.06;5054603;28;20106;-55
2022/12/08 10:23:46;;;;;;;3.72;1.85;;;;;;;3.27;100.00;100655.94;5054222;28;20041;-55
2022/12/08 10:26:16;;;;;;;4.10;2.33;;;;;;;3.29;100.00;100654.16;5054382;28;20050;-55
2022/12/08 10:28:45;;;;;;;3.70;1.95;;;;;;;3.30;100.00;100645.41;5051867;28;20064;-56
2022/12/08 10:31:16;;;;;;;2.67;1.52;;;;;;;3.29;100.00;100643.75;5050548;28;20504;-55
2022/12/08 10:33:49;;;;;;;3.08;1.50;;;;;;;3.32;100.00;100638.44;5053858;28;20395;-56
2022/12/08 10:36:17;;;;;;;3.63;1.42;;;;;;;3.29;100.00;100641.97;5052719;28;20061;-55
2022/12/08 10:38:47;;;;;;;3.08;1.70;;;;;;;3.31;100.00;100631.53;5053211;28;20135;-55
2022/12/08 10:41:16;;;;;;;3.20;1.25;;;;;;;3.34;100.00;100636.59;5053770;28;20052;-56
2022/12/08 10:43:48;;;;;;;3.42;1.10;;;;;;;3.37;100.00;100639.09;5049670;28;20053;-55
2022/12/08 10:46:19;;;;;;;2.60;1.40;;;;;;;3.44;100.00;100635.34;5048390;28;20141;-55
2022/12/08 10:48:50;;;;;;;1.52;1.15;;;;;;;3.47;100.00;100637.00;5053515;28;20060;-56
2022/12/08 10:51:28;;;;;;;2.08;1.20;;;;;;;3.48;100.00;100636.09;5053415;28;20049;-55
2022/12/08 10:53:58;;;;;;;4.50;1.40;;;;;;;3.52;100.00;100635.91;5053753;28;20052;-56
2022/12/08 10:56:28;;;;;;;3.85;1.50;;;;;;;3.57;100.00;100630.50;5052149;28;20053;-55
2022/12/08 10:59:14;;;;;;;3.35;1.67;;;;;;;3.55;100.00;100627.13;5053702;28;20111;-56
2022/12/08 11:01:45;;;;;;;3.80;1.65;;;;;;;3.59;100.00;100627.88;5052141;28;20049;-55
2022/12/08 11:04:18;;;;;;;2.63;1.40;;;;;;;3.60;100.00;100632.13;5053419;28;20476;-56
2022/12/08 11:06:48;;;;;;;3.25;1.50;;;;;;;3.58;100.00;100627.00;5053298;28;20045;-55
2022/12/08 11:09:45;;;;;;;4.10;1.63;;;;;;;3.57;100.00;100624.47;5053419;28;20052;-56
2022/12/08 11:12:15;;;;;;;2.47;1.52;;;;;;;3.53;100.00;100629.81;5053216;28;20103;-56
2022/12/08 11:14:50;;;;;;;4.50;1.70;;;;;;;3.57;100.00;100632.28;5051806;28;20052;-56
2022/12/08 11:17:26;;;;;;;2.75;1.77;;;;;;;3.60;100.00;100637.34;5053232;28;20503;-56
2022/12/08 11:19:59;;;;;;;4.50;1.88;;;;;;;3.62;100.00;100627.75;5052793;28;20063;-55
2022/12/08 11:22:31;;;;;;;3.67;1.90;;;;;;;3.60;100.00;100634.75;5052043;28;20049;-56
2022/12/08 11:25:10;;;;;;;3.47;2.00;;;;;;;3.60;100.00;100639.94;5048053;28;20139;-54
2022/12/08 11:27:43;;;;;;;4.85;2.22;;;;;;;3.50;100.00;100634.25;5051554;28;20099;-55
2022/12/08 11:30:15;;;;;;;4.00;2.20;;;;;;;3.60;100.00;100626.94;5052514;28;20064;-54
2022/12/08 11:32:46;;;;;;;5.65;2.60;;;;;;;3.58;100.00;100626.16;5052939;28;20067;-56
2022/12/08 11:35:21;;;;;;;4.97;2.85;;;;;;;3.59;100.00;100631.31;5051749;28;20052;-56
2022/12/08 11:37:49;;;;;;;6.90;2.65;;;;;;;3.63;100.00;100624.25;5049323;28;20443;-56
2022/12/08 11:40:26;;;;;;;4.07;2.35;;;;;;;3.62;100.00;100627.75;5051621;28;20130;-56
2022/12/08 11:43:06;;;;;;;6.15;3.13;;;;;;;3.61;100.00;100629.47;5052571;28;20377;-56